createdAt,value
2023-02-05T00:01:33.541Z,87.12
2023-02-05T00:04:01.027Z,86.72
2023-02-05T00:06:28.606Z,86.75
2023-02-05T00:08:57.940Z,86.92
2023-02-05T00:11:26.217Z,86.41
2023-02-05T00:13:54.011Z,86.32
2023-02-05T00:16:23.568Z,86.78
2023-02-05T00:18:52.220Z,86.26
2023-02-05T00:21:21.021Z,86.20
2023-02-05T00:23:49.033Z,86.50
2023-02-05T00:26:16.524Z,85.90
2023-02-05T00:28:45.174Z,86.14
2023-02-05T00:31:20.882Z,86.69
2023-02-05T00:33:52.205Z,86.36
2023-02-05T00:36:21.191Z,86.84
2023-02-05T00:38:48.654Z,86.46
2023-02-05T00:41:18.029Z,84.88
2023-02-05T00:43:46.007Z,86.22
2023-02-05T00:46:16.482Z,85.03
2023-02-05T00:48:44.321Z,84.05
2023-02-05T00:51:12.222Z,83.98
2023-02-05T00:53:40.306Z,84.42
2023-02-05T00:56:07.890Z,83.36
2023-02-05T00:58:35.672Z,83.77
2023-02-05T01:01:03.770Z,83.18
2023-02-05T01:03:33.324Z,83.53
2023-02-05T01:06:03.198Z,83.21
2023-02-05T01:08:30.790Z,82.95
2023-02-05T01:10:58.500Z,81.77
2023-02-05T01:13:25.972Z,82.22
2023-02-05T01:15:53.352Z,82.64
2023-02-05T01:18:20.640Z,82.13
2023-02-05T01:20:47.928Z,81.71
2023-02-05T01:23:15.221Z,82.82
2023-02-05T01:25:46.106Z,82.15
2023-02-05T01:28:17.336Z,82.05
2023-02-05T01:30:51.326Z,82.44
2023-02-05T01:33:19.726Z,82.24
2023-02-05T01:35:47.094Z,81.92
2023-02-05T01:38:14.948Z,82.14
2023-02-05T01:40:43.179Z,82.49
2023-02-05T01:43:15.257Z,82.12
2023-02-05T01:45:55.741Z,81.74
2023-02-05T01:48:27.810Z,81.55
2023-02-05T01:51:02.699Z,81.19
2023-02-05T01:53:33.235Z,80.23
2023-02-05T01:56:06.254Z,80.16
2023-02-05T01:58:40.669Z,80.03
2023-02-05T02:01:08.258Z,80.79
2023-02-05T02:03:35.726Z,80.75
2023-02-05T02:06:04.865Z,80.73
2023-02-05T02:08:35.411Z,80.96
2023-02-05T02:11:05.887Z,81.06
2023-02-05T02:13:36.591Z,80.40
2023-02-05T02:16:07.192Z,79.83
2023-02-05T02:18:38.115Z,80.98
2023-02-05T02:21:08.521Z,81.37
2023-02-05T02:23:44.953Z,81.10
2023-02-05T02:26:44.404Z,81.37
2023-02-05T02:29:19.638Z,82.37
2023-02-05T02:31:57.112Z,82.94
2023-02-05T02:34:36.978Z,83.37
2023-02-05T02:37:14.074Z,83.35
2023-02-05T02:39:48.208Z,83.66
2023-02-05T02:42:29.060Z,82.94
2023-02-05T02:45:02.516Z,82.26
2023-02-05T02:47:36.209Z,82.55
2023-02-05T02:50:12.799Z,82.39
2023-02-05T02:52:44.057Z,82.11
2023-02-05T02:55:17.000Z,81.54
2023-02-05T02:57:51.303Z,81.82
2023-02-05T03:00:24.438Z,81.61
2023-02-05T03:02:56.474Z,81.41
2023-02-05T03:05:25.726Z,81.41
2023-02-05T03:08:02.457Z,82.92
2023-02-05T03:10:44.519Z,82.85
2023-02-05T03:13:14.622Z,83.44
2023-02-05T03:15:47.456Z,83.27
2023-02-05T03:18:17.611Z,83.06
2023-02-05T03:20:52.331Z,83.90
2023-02-05T03:23:20.049Z,83.12
2023-02-05T03:25:47.513Z,83.02
2023-02-05T03:28:17.935Z,82.88
2023-02-05T03:30:57.375Z,83.33
2023-02-05T03:33:27.409Z,83.77
2023-02-05T03:36:09.832Z,83.10
2023-02-05T03:38:43.807Z,82.56
2023-02-05T03:41:53.728Z,82.93
2023-02-05T03:44:57.118Z,83.78
2023-02-05T03:47:25.968Z,83.54
2023-02-05T03:49:56.325Z,82.81
2023-02-05T03:52:31.296Z,83.08
2023-02-05T03:55:04.775Z,82.92
2023-02-05T03:57:40.325Z,83.31
2023-02-05T04:00:10.868Z,83.34
2023-02-05T04:02:46.616Z,83.26
2023-02-05T04:05:22.957Z,84.19
2023-02-05T04:07:52.444Z,84.55
2023-02-05T04:10:22.634Z,83.93
2023-02-05T04:12:51.117Z,84.46
2023-02-05T04:15:19.176Z,84.54
2023-02-05T04:17:50.569Z,84.76
2023-02-05T04:20:18.532Z,84.69
2023-02-05T04:22:45.861Z,84.63
2023-02-05T04:25:13.706Z,84.61
2023-02-05T04:27:41.341Z,83.77
2023-02-05T04:30:10.170Z,84.65
2023-02-05T04:32:41.667Z,84.95
2023-02-05T04:35:09.676Z,84.55
2023-02-05T04:37:37.293Z,84.87
2023-02-05T04:40:05.325Z,84.71
2023-02-05T04:42:32.748Z,84.93
2023-02-05T04:45:00.292Z,84.16
2023-02-05T04:47:27.718Z,84.39
2023-02-05T04:49:54.977Z,84.24
2023-02-05T04:52:22.300Z,83.95
2023-02-05T04:54:49.613Z,84.25
2023-02-05T04:57:17.030Z,83.20
2023-02-05T04:59:44.374Z,83.77
2023-02-05T05:02:11.748Z,83.57
2023-02-05T05:04:41.083Z,83.66
2023-02-05T05:07:10.303Z,83.54
2023-02-05T05:09:37.858Z,83.46
2023-02-05T05:12:05.748Z,83.33
2023-02-05T05:14:33.056Z,84.17
2023-02-05T05:17:00.475Z,84.21
2023-02-05T05:19:27.770Z,84.29
2023-02-05T05:21:55.078Z,84.32
2023-02-05T05:24:22.362Z,84.04
2023-02-05T05:26:49.728Z,83.59
2023-02-05T05:29:17.248Z,83.97
2023-02-05T05:31:44.602Z,83.65
2023-02-05T05:34:12.069Z,83.61
2023-02-05T05:36:43.535Z,83.93
2023-02-05T05:39:29.633Z,84.20
2023-02-05T05:42:15.232Z,83.99
2023-02-05T05:44:42.559Z,84.15
2023-02-05T05:47:09.935Z,84.44
2023-02-05T05:49:37.268Z,83.95
2023-02-05T05:52:04.904Z,83.76
2023-02-05T05:54:32.227Z,84.20
2023-02-05T05:56:59.591Z,84.75
2023-02-05T05:59:26.910Z,84.00
2023-02-05T06:01:57.510Z,84.48
2023-02-05T06:04:24.998Z,84.40
2023-02-05T06:06:52.418Z,83.98
2023-02-05T06:09:23.961Z,83.80
2023-02-05T06:11:51.506Z,84.81
2023-02-05T06:14:20.891Z,85.01
2023-02-05T06:16:48.227Z,84.81
2023-02-05T06:19:15.513Z,85.40
2023-02-05T06:21:42.842Z,85.43
2023-02-05T06:24:10.272Z,85.19
2023-02-05T06:26:37.599Z,84.73
2023-02-05T06:29:04.950Z,85.26
2023-02-05T06:31:32.442Z,84.91
2023-02-05T06:34:02.831Z,85.58
2023-02-05T06:36:30.228Z,85.75
2023-02-05T06:38:57.537Z,85.83
2023-02-05T06:41:25.172Z,85.53
2023-02-05T06:43:52.537Z,85.51
2023-02-05T06:46:19.862Z,84.61
2023-02-05T06:48:47.232Z,83.63
2023-02-05T06:51:14.587Z,83.29
2023-02-05T06:53:41.980Z,83.61
2023-02-05T06:56:09.308Z,83.65
2023-02-05T06:58:36.656Z,82.74
2023-02-05T07:01:04.973Z,82.64
2023-02-05T07:03:32.357Z,81.62
2023-02-05T07:06:04.799Z,79.25
2023-02-05T07:08:32.489Z,76.46
2023-02-05T07:10:59.956Z,74.98
2023-02-05T07:13:31.837Z,74.17
2023-02-05T07:16:02.406Z,74.46
2023-02-05T07:18:29.725Z,74.74
2023-02-05T07:20:57.031Z,75.66
2023-02-05T07:23:24.572Z,76.51
2023-02-05T07:25:51.942Z,77.42
2023-02-05T07:28:21.936Z,76.10
2023-02-05T07:30:50.050Z,75.44
2023-02-05T07:33:17.686Z,72.77
2023-02-05T07:35:47.722Z,69.60
2023-02-05T07:38:15.135Z,68.76
2023-02-05T07:40:42.427Z,67.84
2023-02-05T07:43:09.731Z,65.41
2023-02-05T07:45:37.264Z,62.97
2023-02-05T07:48:04.764Z,60.82
2023-02-05T07:50:32.261Z,58.22
2023-02-05T07:52:59.708Z,59.34
2023-02-05T07:55:27.349Z,59.79
2023-02-05T07:57:54.695Z,60.52
2023-02-05T08:00:22.046Z,61.23
2023-02-05T08:02:49.312Z,61.99
2023-02-05T08:05:16.759Z,62.11
2023-02-05T08:07:44.153Z,64.00
2023-02-05T08:10:15.574Z,65.87
2023-02-05T08:12:42.957Z,66.83
2023-02-05T08:15:11.186Z,67.31
2023-02-05T08:17:38.643Z,67.34
2023-02-05T08:20:09.509Z,66.12
2023-02-05T08:22:39.365Z,63.25
2023-02-05T08:25:09.337Z,61.30
2023-02-05T08:27:37.947Z,61.45
2023-02-05T08:30:09.291Z,61.96
2023-02-05T08:32:36.747Z,61.52
2023-02-05T08:35:04.510Z,62.23
2023-02-05T08:37:31.859Z,60.38
2023-02-05T08:39:59.200Z,55.67
2023-02-05T08:42:26.608Z,53.52
2023-02-05T08:44:56.059Z,49.65
2023-02-05T08:47:26.133Z,48.08
2023-02-05T08:49:53.913Z,50.39
2023-02-05T08:52:21.308Z,49.49
2023-02-05T08:54:49.370Z,49.77
2023-02-05T08:57:16.730Z,49.74
2023-02-05T08:59:44.158Z,50.10
2023-02-05T09:02:17.430Z,48.82
2023-02-05T09:04:44.834Z,48.06
2023-02-05T09:07:14.952Z,49.14
2023-02-05T09:09:42.421Z,50.99
2023-02-05T09:12:10.811Z,53.47
2023-02-05T09:14:39.177Z,54.15
2023-02-05T09:17:09.148Z,55.29
2023-02-05T09:19:38.595Z,57.65
2023-02-05T09:22:07.891Z,58.81
2023-02-05T09:24:37.804Z,60.45
2023-02-05T09:27:06.688Z,61.76
2023-02-05T09:29:34.121Z,61.20
2023-02-05T09:32:01.570Z,61.01
2023-02-05T09:34:28.873Z,62.75
2023-02-05T09:36:56.242Z,62.20
2023-02-05T09:40:01.926Z,62.72
2023-02-05T09:42:18.973Z,64.75
2023-02-05T09:45:07.759Z,64.13
2023-02-05T09:47:45.769Z,63.33
2023-02-05T09:50:31.447Z,61.77
2023-02-05T09:53:06.379Z,60.09
2023-02-05T09:55:38.783Z,60.61
2023-02-05T09:58:11.436Z,59.66
2023-02-05T10:00:52.464Z,60.69
2023-02-05T10:03:34.222Z,61.45
2023-02-05T10:06:10.997Z,60.87
2023-02-05T10:08:48.300Z,62.03
2023-02-05T10:11:41.855Z,61.70
2023-02-05T10:14:43.194Z,61.72
2023-02-05T10:17:24.670Z,61.66
2023-02-05T10:20:13.167Z,62.78
2023-02-05T10:22:54.191Z,63.61
2023-02-05T10:25:45.434Z,63.38
2023-02-05T10:28:34.189Z,62.93
2023-02-05T10:31:23.716Z,62.40
2023-02-05T10:33:56.083Z,62.02
2023-02-05T10:36:25.978Z,61.98
2023-02-05T10:38:56.380Z,62.47
2023-02-05T10:41:30.179Z,61.74
2023-02-05T10:44:12.306Z,60.13
2023-02-05T10:46:40.260Z,59.01
2023-02-05T10:49:18.722Z,59.83
2023-02-05T10:51:46.407Z,61.43
2023-02-05T10:54:33.777Z,61.84
2023-02-05T10:57:03.320Z,61.90
2023-02-05T10:59:34.083Z,60.41
2023-02-05T11:02:07.314Z,61.25
2023-02-05T11:04:47.026Z,60.63
2023-02-05T11:07:33.913Z,61.65
2023-02-05T11:10:21.257Z,62.26
2023-02-05T11:13:10.275Z,62.31
2023-02-05T11:15:52.799Z,62.04
2023-02-05T11:18:27.797Z,62.74
2023-02-05T11:21:01.600Z,60.95
2023-02-05T11:23:32.185Z,60.24
2023-02-05T11:26:09.232Z,61.17
2023-02-05T11:28:42.228Z,61.68
2023-02-05T11:31:28.898Z,61.96
2023-02-05T11:34:08.166Z,62.22
2023-02-05T11:36:49.811Z,61.05
2023-02-05T11:39:29.952Z,61.92
2023-02-05T11:41:58.655Z,61.01
2023-02-05T11:44:30.257Z,60.51
2023-02-05T11:46:59.772Z,60.84
2023-02-05T11:49:34.770Z,60.02
2023-02-05T11:52:09.615Z,59.21
2023-02-05T11:54:41.577Z,59.58
2023-02-05T11:57:17.793Z,59.96
2023-02-05T12:00:16.386Z,60.90
2023-02-05T12:02:44.456Z,60.92
2023-02-05T12:05:31.434Z,61.59
2023-02-05T12:08:08.219Z,62.26
2023-02-05T12:10:52.829Z,63.16
2023-02-05T12:13:58.534Z,63.69
2023-02-05T12:16:46.409Z,64.63
2023-02-05T12:19:44.131Z,63.72
2023-02-05T12:22:20.287Z,64.74
2023-02-05T12:24:53.600Z,64.64
2023-02-05T12:27:39.647Z,65.38
2023-02-05T12:30:40.790Z,66.04
2023-02-05T12:33:28.598Z,66.96
2023-02-05T12:36:11.248Z,66.13
2023-02-05T12:39:05.256Z,65.31
2023-02-05T12:41:54.159Z,65.13
2023-02-05T12:44:51.808Z,66.01
2023-02-05T12:47:55.172Z,67.26
2023-02-05T12:50:36.018Z,67.15
2023-02-05T12:53:30.516Z,67.74
2023-02-05T12:56:06.945Z,68.49
2023-02-05T12:58:48.952Z,68.43
2023-02-05T13:01:33.625Z,66.94
2023-02-05T13:04:02.626Z,66.54
2023-02-05T13:06:47.254Z,66.53
2023-02-05T13:09:46.770Z,65.91
2023-02-05T13:12:20.048Z,65.95
2023-02-05T13:15:05.944Z,65.71
2023-02-05T13:17:40.569Z,65.11
2023-02-05T13:20:19.696Z,65.25
2023-02-05T13:23:16.137Z,66.15
2023-02-05T13:26:06.761Z,65.18
2023-02-05T13:28:47.676Z,66.15
2023-02-05T13:31:28.469Z,65.99
2023-02-05T13:34:03.037Z,66.28
2023-02-05T13:36:56.532Z,67.71
2023-02-05T13:39:50.783Z,67.63
2023-02-05T13:42:20.877Z,68.19
2023-02-05T13:45:22.203Z,66.64
2023-02-05T13:47:56.649Z,66.93
2023-02-05T13:50:42.921Z,66.60
2023-02-05T13:53:41.375Z,67.02
2023-02-05T13:56:17.289Z,67.53
2023-02-05T13:59:11.028Z,67.30
2023-02-05T14:01:44.818Z,67.17
2023-02-05T14:04:37.162Z,67.27
2023-02-05T14:07:06.845Z,67.35
2023-02-05T14:10:06.654Z,68.15
2023-02-05T14:12:36.366Z,68.83
2023-02-05T14:15:16.213Z,68.07
2023-02-05T14:17:43.513Z,67.66
2023-02-05T14:20:25.986Z,68.77
2023-02-05T14:22:58.007Z,68.62
2023-02-05T14:25:43.308Z,68.43
2023-02-05T14:28:16.487Z,68.78
2023-02-05T14:30:48.326Z,70.02
2023-02-05T14:33:32.208Z,70.82
2023-02-05T14:36:18.323Z,71.36
2023-02-05T14:38:54.192Z,72.95
2023-02-05T14:41:40.162Z,74.54
2023-02-05T14:44:13.586Z,75.16
2023-02-05T14:46:54.736Z,75.34
2023-02-05T14:49:29.098Z,75.42
2023-02-05T14:52:24.334Z,75.77
2023-02-05T14:55:01.059Z,76.23
2023-02-05T14:57:51.936Z,77.26
2023-02-05T15:00:34.360Z,76.94
2023-02-05T15:03:04.865Z,75.27
2023-02-05T15:05:42.381Z,75.24
2023-02-05T15:08:33.900Z,76.42
2023-02-05T15:11:41.141Z,77.62
2023-02-05T15:14:33.110Z,77.81
2023-02-05T15:17:06.611Z,78.38
2023-02-05T15:19:40.694Z,77.56
2023-02-05T15:22:31.058Z,78.38
2023-02-05T15:25:00.051Z,78.77
2023-02-05T15:27:44.896Z,78.52
2023-02-05T15:30:19.923Z,78.58
2023-02-05T15:32:53.001Z,79.02
2023-02-05T15:35:24.546Z,79.12
2023-02-05T15:37:58.550Z,78.74
2023-02-05T15:40:40.395Z,79.37
2023-02-05T15:43:17.924Z,78.89
2023-02-05T15:45:46.266Z,80.59
2023-02-05T15:48:17.977Z,79.57
2023-02-05T15:50:58.719Z,80.20
2023-02-05T15:53:36.828Z,80.41
2023-02-05T15:56:12.968Z,80.60
2023-02-05T15:58:50.564Z,81.13
2023-02-05T16:01:28.297Z,81.72
2023-02-05T16:03:55.880Z,81.79
2023-02-05T16:06:25.940Z,81.67
2023-02-05T16:08:53.688Z,81.62
2023-02-05T16:11:32.319Z,82.38
2023-02-05T16:14:20.320Z,81.87
2023-02-05T16:17:14.947Z,81.78
2023-02-05T16:19:42.183Z,83.16
2023-02-05T16:22:34.272Z,83.98
2023-02-05T16:25:07.524Z,83.07
2023-02-05T16:27:40.816Z,82.81
2023-02-05T16:30:18.142Z,83.23
2023-02-05T16:32:47.012Z,84.49
2023-02-05T16:35:24.532Z,83.65
2023-02-05T16:37:52.222Z,83.94
2023-02-05T16:40:38.720Z,84.06
2023-02-05T16:43:38.008Z,83.87
2023-02-05T16:46:08.091Z,84.65
2023-02-05T16:48:48.521Z,82.61
2023-02-05T16:51:40.570Z,83.68
2023-02-05T16:54:10.305Z,83.62
2023-02-05T16:57:14.425Z,84.21
2023-02-05T17:00:04.276Z,84.58
2023-02-05T17:02:41.035Z,84.24
2023-02-05T17:05:47.589Z,83.51
2023-02-05T17:08:15.013Z,84.08
2023-02-05T17:10:51.303Z,83.88
2023-02-05T17:13:29.413Z,85.03
2023-02-05T17:15:56.896Z,83.87
2023-02-05T17:18:25.933Z,83.94
2023-02-05T17:21:19.949Z,84.14
2023-02-05T17:23:51.890Z,84.07
2023-02-05T17:26:19.250Z,83.48
2023-02-05T17:28:51.977Z,85.31
2023-02-05T17:31:22.538Z,85.74
2023-02-05T17:33:51.324Z,85.55
2023-02-05T17:36:19.229Z,85.26
2023-02-05T17:38:48.722Z,84.86
2023-02-05T17:41:38.495Z,84.05
2023-02-05T17:44:06.161Z,85.37
2023-02-05T17:46:33.472Z,82.62
2023-02-05T17:49:00.788Z,81.53
2023-02-05T17:51:29.020Z,82.53
2023-02-05T17:53:56.537Z,83.12
2023-02-05T17:56:24.337Z,84.25
2023-02-05T17:58:53.940Z,84.05
2023-02-05T18:01:22.219Z,83.59
2023-02-05T18:03:49.664Z,82.49
2023-02-05T18:06:18.432Z,83.26
2023-02-05T18:08:45.737Z,82.49
2023-02-05T18:11:13.217Z,82.64
2023-02-05T18:13:40.536Z,83.11
2023-02-05T18:16:08.140Z,82.36
2023-02-05T18:18:37.909Z,82.40
2023-02-05T18:21:08.071Z,83.15
2023-02-05T18:23:35.632Z,83.01
2023-02-05T18:26:06.042Z,83.69
2023-02-05T18:28:35.183Z,83.17
2023-02-05T18:31:08.157Z,83.07
2023-02-05T18:33:36.801Z,81.38
2023-02-05T18:36:09.877Z,80.35
2023-02-05T18:38:38.098Z,81.26
2023-02-05T18:41:13.564Z,80.61
2023-02-05T18:43:43.506Z,80.93
2023-02-05T18:46:16.333Z,80.67
2023-02-05T18:48:45.708Z,81.18
2023-02-05T18:51:14.935Z,81.36
2023-02-05T18:53:43.517Z,81.72
2023-02-05T18:56:16.831Z,81.87
2023-02-05T18:58:49.725Z,82.25
2023-02-05T19:01:22.276Z,82.13
2023-02-05T19:03:52.728Z,82.05
2023-02-05T19:06:21.705Z,81.02
2023-02-05T19:08:49.773Z,80.75
2023-02-05T19:11:20.740Z,80.87
2023-02-05T19:13:54.163Z,81.00
2023-02-05T19:16:21.570Z,81.77
2023-02-05T19:18:49.504Z,82.77
2023-02-05T19:21:18.837Z,81.27
2023-02-05T19:23:50.209Z,81.39
2023-02-05T19:26:19.627Z,82.26
2023-02-05T19:28:53.308Z,81.52
2023-02-05T19:31:20.767Z,82.04
2023-02-05T19:33:48.824Z,82.23
2023-02-05T19:36:16.268Z,82.47
2023-02-05T19:38:43.669Z,82.35
2023-02-05T19:41:13.780Z,83.06
2023-02-05T19:43:52.406Z,82.75
2023-02-05T19:46:25.652Z,82.45
2023-02-05T19:48:54.732Z,83.07
2023-02-05T19:51:22.409Z,83.25
2023-02-05T19:53:49.859Z,83.82
2023-02-05T19:56:22.011Z,83.59
2023-02-05T19:58:51.972Z,83.88
2023-02-05T20:01:32.873Z,83.87
2023-02-05T20:04:22.348Z,83.11
2023-02-05T20:06:52.447Z,83.25
2023-02-05T20:09:20.173Z,83.17
2023-02-05T20:11:49.852Z,83.92
2023-02-05T20:14:18.364Z,83.91
2023-02-05T20:16:46.298Z,83.67
2023-02-05T20:19:17.351Z,83.88
2023-02-05T20:21:45.786Z,84.98
2023-02-05T20:24:13.558Z,84.04
2023-02-05T20:26:41.019Z,84.33
2023-02-05T20:29:28.883Z,84.43
2023-02-05T20:31:57.632Z,85.36
2023-02-05T20:34:26.810Z,84.94
2023-02-05T20:36:57.168Z,84.57
2023-02-05T20:39:28.716Z,84.56
2023-02-05T20:41:58.345Z,84.75
2023-02-05T20:44:32.113Z,85.17
2023-02-05T20:46:59.668Z,84.01
2023-02-05T20:49:27.018Z,84.32
2023-02-05T20:51:54.831Z,84.30
2023-02-05T20:54:23.022Z,83.77
2023-02-05T20:56:51.654Z,83.89
2023-02-05T20:59:19.066Z,83.71
2023-02-05T21:01:46.585Z,84.16
2023-02-05T21:04:14.063Z,84.53
2023-02-05T21:06:41.514Z,85.44
2023-02-05T21:09:09.951Z,85.31
2023-02-05T21:11:38.100Z,85.37
2023-02-05T21:14:06.592Z,84.35
2023-02-05T21:16:35.628Z,84.51
2023-02-05T21:19:05.854Z,84.53
2023-02-05T21:21:35.471Z,84.27
2023-02-05T21:24:06.637Z,84.33
2023-02-05T21:26:38.582Z,84.33
2023-02-05T21:29:07.423Z,84.93
2023-02-05T21:31:44.562Z,85.47
2023-02-05T21:34:14.889Z,85.56
2023-02-05T21:36:42.331Z,84.49
2023-02-05T21:39:12.111Z,84.93
2023-02-05T21:41:39.716Z,85.42
2023-02-05T21:44:07.041Z,85.35
2023-02-05T21:46:34.628Z,84.16
2023-02-05T21:49:02.212Z,84.18
2023-02-05T21:51:34.565Z,85.13
2023-02-05T21:54:06.214Z,84.54
2023-02-05T21:56:43.574Z,84.87
2023-02-05T21:59:12.073Z,85.15
2023-02-05T22:01:39.960Z,84.70
2023-02-05T22:04:11.163Z,85.04
2023-02-05T22:06:39.079Z,84.93
2023-02-05T22:09:11.289Z,85.11
2023-02-05T22:11:39.514Z,85.93
2023-02-05T22:14:07.232Z,85.71
2023-02-05T22:16:36.117Z,85.49
2023-02-05T22:19:04.848Z,85.86
2023-02-05T22:21:35.856Z,85.77
2023-02-05T22:24:05.289Z,86.47
2023-02-05T22:26:36.302Z,86.46
2023-02-05T22:29:06.352Z,86.69
2023-02-05T22:31:34.608Z,86.98
2023-02-05T22:34:02.386Z,87.36
2023-02-05T22:36:32.121Z,87.11
2023-02-05T22:38:59.813Z,87.20
2023-02-05T22:41:32.739Z,87.13
2023-02-05T22:44:01.744Z,88.27
2023-02-05T22:46:33.636Z,88.03
2023-02-05T22:49:01.840Z,87.14
2023-02-05T22:51:38.052Z,86.93
2023-02-05T22:54:06.140Z,87.76
2023-02-05T22:56:33.877Z,87.81
2023-02-05T22:59:03.308Z,86.43
2023-02-05T23:01:33.810Z,86.07
2023-02-05T23:04:02.799Z,85.91
2023-02-05T23:06:35.571Z,85.80
2023-02-05T23:09:05.810Z,86.65
2023-02-05T23:11:33.955Z,86.82
2023-02-05T23:14:02.984Z,86.40
2023-02-05T23:16:33.862Z,85.02
2023-02-05T23:19:06.201Z,85.16
2023-02-05T23:21:35.660Z,85.62
2023-02-05T23:24:04.258Z,86.59
2023-02-05T23:26:35.055Z,86.51
2023-02-05T23:29:02.367Z,86.20
2023-02-05T23:31:30.140Z,86.86
2023-02-05T23:33:57.824Z,87.49
2023-02-05T23:36:25.199Z,86.33
2023-02-05T23:38:52.551Z,86.60
2023-02-05T23:41:39.784Z,86.56
2023-02-05T23:44:20.269Z,87.21
2023-02-05T23:46:49.290Z,86.51
2023-02-05T23:49:17.965Z,86.60
2023-02-05T23:51:45.310Z,86.77
2023-02-05T23:54:12.701Z,86.66
2023-02-05T23:56:40.757Z,86.88
2023-02-05T23:59:10.318Z,86.75
